sensor_id;sensor_type;location;lat;lon;timestamp;P1;P2;P0
64627;PMS5003;59036;50.960;0.314;2022-07-12T00:00:53;7;7;
64627;PMS5003;59036;50.960;0.314;2022-07-12T00:03:20;7;7;
64627;PMS5003;59036;50.960;0.314;2022-07-12T00:05:48;7;7;
64627;PMS5003;59036;50.960;0.314;2022-07-12T00:08:15;7;6;
64627;PMS5003;59036;50.960;0.314;2022-07-12T00:10:42;6;6;
64627;PMS5003;59036;50.960;0.314;2022-07-12T00:13:09;7;7;
64627;PMS5003;59036;50.960;0.314;2022-07-12T00:15:36;7;6;
64627;PMS5003;59036;50.960;0.314;2022-07-12T00:18:03;6;5;
64627;PMS5003;59036;50.960;0.314;2022-07-12T00:20:30;10;10;
64627;PMS5003;59036;50.960;0.314;2022-07-12T00:22:57;6;6;
64627;PMS5003;59036;50.960;0.314;2022-07-12T00:25:24;9;8;
64627;PMS5003;59036;50.960;0.314;2022-07-12T00:27:51;8;7;
64627;PMS5003;59036;50.960;0.314;2022-07-12T00:30:19;9;8;
64627;PMS5003;59036;50.960;0.314;2022-07-12T00:32:47;6;6;
64627;PMS5003;59036;50.960;0.314;2022-07-12T00:35:15;7;7;
64627;PMS5003;59036;50.960;0.314;2022-07-12T00:37:42;8;8;
64627;PMS5003;59036;50.960;0.314;2022-07-12T00:40:10;7;7;
64627;PMS5003;59036;50.960;0.314;2022-07-12T00:42:37;10;8;
64627;PMS5003;59036;50.960;0.314;2022-07-12T00:45:06;9;9;
64627;PMS5003;59036;50.960;0.314;2022-07-12T00:47:34;6;6;
64627;PMS5003;59036;50.960;0.314;2022-07-12T00:50:03;7;7;
64627;PMS5003;59036;50.960;0.314;2022-07-12T00:52:32;7;7;
64627;PMS5003;59036;50.960;0.314;2022-07-12T00:55:00;7;7;
64627;PMS5003;59036;50.960;0.314;2022-07-12T00:57:27;6;6;
64627;PMS5003;59036;50.960;0.314;2022-07-12T00:59:55;9;8;
64627;PMS5003;59036;50.960;0.314;2022-07-12T01:02:21;7;7;
64627;PMS5003;59036;50.960;0.314;2022-07-12T01:04:49;8;7;
64627;PMS5003;59036;50.960;0.314;2022-07-12T01:07:18;8;8;
64627;PMS5003;59036;50.960;0.314;2022-07-12T01:09:45;8;8;
64627;PMS5003;59036;50.960;0.314;2022-07-12T01:12:13;7;7;
64627;PMS5003;59036;50.960;0.314;2022-07-12T01:14:41;8;8;
64627;PMS5003;59036;50.960;0.314;2022-07-12T01:17:09;8;8;
64627;PMS5003;59036;50.960;0.314;2022-07-12T01:19:36;10;9;
64627;PMS5003;59036;50.960;0.314;2022-07-12T01:22:05;8;8;
64627;PMS5003;59036;50.960;0.314;2022-07-12T01:24:36;8;8;
64627;PMS5003;59036;50.960;0.314;2022-07-12T01:27:04;9;9;
64627;PMS5003;59036;50.960;0.314;2022-07-12T01:29:32;8;7;
64627;PMS5003;59036;50.960;0.314;2022-07-12T01:31:59;8;8;
64627;PMS5003;59036;50.960;0.314;2022-07-12T01:34:27;10;9;
64627;PMS5003;59036;50.960;0.314;2022-07-12T01:36:55;8;8;
64627;PMS5003;59036;50.960;0.314;2022-07-12T01:39:22;8;8;
64627;PMS5003;59036;50.960;0.314;2022-07-12T01:41:49;7;7;
64627;PMS5003;59036;50.960;0.314;2022-07-12T01:44:16;10;9;
64627;PMS5003;59036;50.960;0.314;2022-07-12T01:46:43;7;7;
64627;PMS5003;59036;50.960;0.314;2022-07-12T01:49:10;7;7;
64627;PMS5003;59036;50.960;0.314;2022-07-12T01:51:37;8;8;
64627;PMS5003;59036;50.960;0.314;2022-07-12T01:54:04;10;9;
64627;PMS5003;59036;50.960;0.314;2022-07-12T01:56:31;10;10;
64627;PMS5003;59036;50.960;0.314;2022-07-12T01:58:58;8;8;
64627;PMS5003;59036;50.960;0.314;2022-07-12T02:01:26;10;10;
64627;PMS5003;59036;50.960;0.314;2022-07-12T02:03:54;9;9;
64627;PMS5003;59036;50.960;0.314;2022-07-12T02:06:21;9;8;
64627;PMS5003;59036;50.960;0.314;2022-07-12T02:08:49;9;9;
64627;PMS5003;59036;50.960;0.314;2022-07-12T02:11:16;10;9;
64627;PMS5003;59036;50.960;0.314;2022-07-12T02:13:43;8;8;
64627;PMS5003;59036;50.960;0.314;2022-07-12T02:16:10;8;8;
64627;PMS5003;59036;50.960;0.314;2022-07-12T02:18:37;11;11;
64627;PMS5003;59036;50.960;0.314;2022-07-12T02:21:04;9;9;
64627;PMS5003;59036;50.960;0.314;2022-07-12T02:23:32;9;9;
64627;PMS5003;59036;50.960;0.314;2022-07-12T02:25:59;11;10;
64627;PMS5003;59036;50.960;0.314;2022-07-12T02:28:26;10;10;
64627;PMS5003;59036;50.960;0.314;2022-07-12T02:30:53;10;10;
64627;PMS5003;59036;50.960;0.314;2022-07-12T02:33:20;11;10;
64627;PMS5003;59036;50.960;0.314;2022-07-12T02:35:47;10;10;
64627;PMS5003;59036;50.960;0.314;2022-07-12T02:38:14;9;9;
64627;PMS5003;59036;50.960;0.314;2022-07-12T02:40:41;10;10;
64627;PMS5003;59036;50.960;0.314;2022-07-12T02:43:08;10;10;
64627;PMS5003;59036;50.960;0.314;2022-07-12T02:45:35;11;11;
64627;PMS5003;59036;50.960;0.314;2022-07-12T02:48:02;10;10;
64627;PMS5003;59036;50.960;0.314;2022-07-12T02:50:30;13;12;
64627;PMS5003;59036;50.960;0.314;2022-07-12T02:52:57;12;11;
64627;PMS5003;59036;50.960;0.314;2022-07-12T02:55:24;11;11;
64627;PMS5003;59036;50.960;0.314;2022-07-12T02:57:51;13;11;
64627;PMS5003;59036;50.960;0.314;2022-07-12T03:00:18;12;12;
64627;PMS5003;59036;50.960;0.314;2022-07-12T03:02:45;12;12;
64627;PMS5003;59036;50.960;0.314;2022-07-12T03:05:12;13;11;
64627;PMS5003;59036;50.960;0.314;2022-07-12T03:07:40;12;12;
64627;PMS5003;59036;50.960;0.314;2022-07-12T03:10:07;10;10;
64627;PMS5003;59036;50.960;0.314;2022-07-12T03:12:35;15;14;
64627;PMS5003;59036;50.960;0.314;2022-07-12T03:15:02;14;13;
64627;PMS5003;59036;50.960;0.314;2022-07-12T03:17:30;12;12;
64627;PMS5003;59036;50.960;0.314;2022-07-12T03:19:58;12;11;
64627;PMS5003;59036;50.960;0.314;2022-07-12T03:22:24;12;12;
64627;PMS5003;59036;50.960;0.314;2022-07-12T03:24:51;14;14;
64627;PMS5003;59036;50.960;0.314;2022-07-12T03:27:18;13;12;
64627;PMS5003;59036;50.960;0.314;2022-07-12T03:29:45;12;11;
64627;PMS5003;59036;50.960;0.314;2022-07-12T03:32:13;14;14;
64627;PMS5003;59036;50.960;0.314;2022-07-12T03:34:40;14;12;
64627;PMS5003;59036;50.960;0.314;2022-07-12T03:37:07;13;13;
64627;PMS5003;59036;50.960;0.314;2022-07-12T03:39:34;14;12;
64627;PMS5003;59036;50.960;0.314;2022-07-12T03:42:01;14;14;
64627;PMS5003;59036;50.960;0.314;2022-07-12T03:44:29;14;13;
64627;PMS5003;59036;50.960;0.314;2022-07-12T03:46:57;15;14;
64627;PMS5003;59036;50.960;0.314;2022-07-12T03:49:24;13;13;
64627;PMS5003;59036;50.960;0.314;2022-07-12T03:51:51;14;13;
64627;PMS5003;59036;50.960;0.314;2022-07-12T03:54:18;17;17;
64627;PMS5003;59036;50.960;0.314;2022-07-12T03:56:45;14;14;
64627;PMS5003;59036;50.960;0.314;2022-07-12T03:59:12;13;13;
64627;PMS5003;59036;50.960;0.314;2022-07-12T04:01:40;13;13;
64627;PMS5003;59036;50.960;0.314;2022-07-12T04:04:07;15;14;
64627;PMS5003;59036;50.960;0.314;2022-07-12T04:06:35;14;14;
64627;PMS5003;59036;50.960;0.314;2022-07-12T04:09:02;13;13;
64627;PMS5003;59036;50.960;0.314;2022-07-12T04:11:29;13;12;
64627;PMS5003;59036;50.960;0.314;2022-07-12T04:13:56;14;14;
64627;PMS5003;59036;50.960;0.314;2022-07-12T04:16:23;16;16;
64627;PMS5003;59036;50.960;0.314;2022-07-12T04:18:50;13;13;
64627;PMS5003;59036;50.960;0.314;2022-07-12T04:21:18;14;14;
64627;PMS5003;59036;50.960;0.314;2022-07-12T04:23:46;15;15;
64627;PMS5003;59036;50.960;0.314;2022-07-12T04:26:13;14;13;
64627;PMS5003;59036;50.960;0.314;2022-07-12T04:28:40;14;13;
64627;PMS5003;59036;50.960;0.314;2022-07-12T04:31:07;16;15;
64627;PMS5003;59036;50.960;0.314;2022-07-12T04:33:35;15;13;
64627;PMS5003;59036;50.960;0.314;2022-07-12T04:36:03;14;14;
64627;PMS5003;59036;50.960;0.314;2022-07-12T04:38:30;18;16;
64627;PMS5003;59036;50.960;0.314;2022-07-12T04:40:58;14;13;
64627;PMS5003;59036;50.960;0.314;2022-07-12T04:43:25;14;13;
64627;PMS5003;59036;50.960;0.314;2022-07-12T04:45:52;14;14;
64627;PMS5003;59036;50.960;0.314;2022-07-12T04:48:19;12;11;
64627;PMS5003;59036;50.960;0.314;2022-07-12T04:50:46;13;13;
64627;PMS5003;59036;50.960;0.314;2022-07-12T04:53:13;13;13;
64627;PMS5003;59036;50.960;0.314;2022-07-12T04:55:40;15;14;
64627;PMS5003;59036;50.960;0.314;2022-07-12T04:58:07;12;12;
64627;PMS5003;59036;50.960;0.314;2022-07-12T05:00:34;14;14;
64627;PMS5003;59036;50.960;0.314;2022-07-12T05:03:01;14;13;
64627;PMS5003;59036;50.960;0.314;2022-07-12T05:05:28;15;14;
64627;PMS5003;59036;50.960;0.314;2022-07-12T05:07:55;15;15;
64627;PMS5003;59036;50.960;0.314;2022-07-12T05:10:23;15;15;
64627;PMS5003;59036;50.960;0.314;2022-07-12T05:12:50;16;16;
64627;PMS5003;59036;50.960;0.314;2022-07-12T05:15:17;13;13;
64627;PMS5003;59036;50.960;0.314;2022-07-12T05:17:44;15;14;
64627;PMS5003;59036;50.960;0.314;2022-07-12T05:20:11;13;13;
64627;PMS5003;59036;50.960;0.314;2022-07-12T05:22:38;12;11;
64627;PMS5003;59036;50.960;0.314;2022-07-12T05:25:04;14;14;
64627;PMS5003;59036;50.960;0.314;2022-07-12T05:27:32;13;13;
64627;PMS5003;59036;50.960;0.314;2022-07-12T05:29:59;17;16;
64627;PMS5003;59036;50.960;0.314;2022-07-12T05:32:26;15;13;
64627;PMS5003;59036;50.960;0.314;2022-07-12T05:34:54;11;11;
64627;PMS5003;59036;50.960;0.314;2022-07-12T05:37:21;14;14;
64627;PMS5003;59036;50.960;0.314;2022-07-12T05:39:47;11;11;
64627;PMS5003;59036;50.960;0.314;2022-07-12T05:42:14;12;12;
64627;PMS5003;59036;50.960;0.314;2022-07-12T05:44:41;13;13;
64627;PMS5003;59036;50.960;0.314;2022-07-12T05:47:08;11;11;
64627;PMS5003;59036;50.960;0.314;2022-07-12T05:49:36;13;13;
64627;PMS5003;59036;50.960;0.314;2022-07-12T05:52:03;13;12;
64627;PMS5003;59036;50.960;0.314;2022-07-12T05:54:31;14;14;
64627;PMS5003;59036;50.960;0.314;2022-07-12T05:56:58;15;15;
64627;PMS5003;59036;50.960;0.314;2022-07-12T05:59:25;14;14;
64627;PMS5003;59036;50.960;0.314;2022-07-12T06:01:52;16;14;
64627;PMS5003;59036;50.960;0.314;2022-07-12T06:04:19;13;12;
64627;PMS5003;59036;50.960;0.314;2022-07-12T06:06:46;12;12;
64627;PMS5003;59036;50.960;0.314;2022-07-12T06:09:13;16;16;
64627;PMS5003;59036;50.960;0.314;2022-07-12T06:11:40;13;12;
64627;PMS5003;59036;50.960;0.314;2022-07-12T06:14:07;17;15;
64627;PMS5003;59036;50.960;0.314;2022-07-12T06:16:34;11;11;
64627;PMS5003;59036;50.960;0.314;2022-07-12T06:19:01;12;12;
64627;PMS5003;59036;50.960;0.314;2022-07-12T06:21:28;14;13;
64627;PMS5003;59036;50.960;0.314;2022-07-12T06:23:56;12;12;
64627;PMS5003;59036;50.960;0.314;2022-07-12T06:26:23;13;13;
64627;PMS5003;59036;50.960;0.314;2022-07-12T06:28:51;14;14;
64627;PMS5003;59036;50.960;0.314;2022-07-12T06:31:18;15;14;
64627;PMS5003;59036;50.960;0.314;2022-07-12T06:33:45;15;14;
64627;PMS5003;59036;50.960;0.314;2022-07-12T06:36:12;12;12;
64627;PMS5003;59036;50.960;0.314;2022-07-12T06:38:40;12;12;
64627;PMS5003;59036;50.960;0.314;2022-07-12T06:41:08;12;12;
64627;PMS5003;59036;50.960;0.314;2022-07-12T06:43:35;15;14;
64627;PMS5003;59036;50.960;0.314;2022-07-12T06:46:02;15;14;
64627;PMS5003;59036;50.960;0.314;2022-07-12T06:48:29;13;13;
64627;PMS5003;59036;50.960;0.314;2022-07-12T06:50:57;10;10;
64627;PMS5003;59036;50.960;0.314;2022-07-12T06:53:24;11;11;
64627;PMS5003;59036;50.960;0.314;2022-07-12T06:55:51;11;10;
64627;PMS5003;59036;50.960;0.314;2022-07-12T06:58:19;14;13;
64627;PMS5003;59036;50.960;0.314;2022-07-12T07:00:46;12;12;
64627;PMS5003;59036;50.960;0.314;2022-07-12T07:03:13;10;10;
64627;PMS5003;59036;50.960;0.314;2022-07-12T07:05:40;12;11;
64627;PMS5003;59036;50.960;0.314;2022-07-12T07:08:07;10;10;
64627;PMS5003;59036;50.960;0.314;2022-07-12T07:10:34;12;12;
64627;PMS5003;59036;50.960;0.314;2022-07-12T07:13:01;11;11;
64627;PMS5003;59036;50.960;0.314;2022-07-12T07:15:28;8;8;
64627;PMS5003;59036;50.960;0.314;2022-07-12T07:17:55;11;11;
64627;PMS5003;59036;50.960;0.314;2022-07-12T07:20:22;11;11;
64627;PMS5003;59036;50.960;0.314;2022-07-12T07:22:49;8;8;
64627;PMS5003;59036;50.960;0.314;2022-07-12T07:25:16;10;10;
64627;PMS5003;59036;50.960;0.314;2022-07-12T07:27:43;10;10;
64627;PMS5003;59036;50.960;0.314;2022-07-12T07:30:10;9;9;
64627;PMS5003;59036;50.960;0.314;2022-07-12T07:32:37;10;10;
64627;PMS5003;59036;50.960;0.314;2022-07-12T07:35:04;13;11;
64627;PMS5003;59036;50.960;0.314;2022-07-12T07:37:32;9;9;
64627;PMS5003;59036;50.960;0.314;2022-07-12T07:40:00;11;11;
64627;PMS5003;59036;50.960;0.314;2022-07-12T07:42:26;8;7;
64627;PMS5003;59036;50.960;0.314;2022-07-12T07:44:53;9;9;
64627;PMS5003;59036;50.960;0.314;2022-07-12T07:47:20;7;7;
64627;PMS5003;59036;50.960;0.314;2022-07-12T07:49:47;9;8;
64627;PMS5003;59036;50.960;0.314;2022-07-12T07:52:14;12;12;
64627;PMS5003;59036;50.960;0.314;2022-07-12T07:54:41;10;10;
64627;PMS5003;59036;50.960;0.314;2022-07-12T07:57:08;9;8;
64627;PMS5003;59036;50.960;0.314;2022-07-12T07:59:35;8;7;
64627;PMS5003;59036;50.960;0.314;2022-07-12T08:02:02;12;11;
64627;PMS5003;59036;50.960;0.314;2022-07-12T08:04:30;9;9;
64627;PMS5003;59036;50.960;0.314;2022-07-12T08:06:57;11;10;
64627;PMS5003;59036;50.960;0.314;2022-07-12T08:09:24;8;8;
64627;PMS5003;59036;50.960;0.314;2022-07-12T08:11:51;9;9;
64627;PMS5003;59036;50.960;0.314;2022-07-12T08:14:18;8;8;
64627;PMS5003;59036;50.960;0.314;2022-07-12T08:16:45;8;8;
64627;PMS5003;59036;50.960;0.314;2022-07-12T08:19:11;8;8;
64627;PMS5003;59036;50.960;0.314;2022-07-12T08:21:38;8;7;
64627;PMS5003;59036;50.960;0.314;2022-07-12T08:24:05;7;7;
64627;PMS5003;59036;50.960;0.314;2022-07-12T08:26:32;8;7;
64627;PMS5003;59036;50.960;0.314;2022-07-12T08:28:59;9;9;
64627;PMS5003;59036;50.960;0.314;2022-07-12T08:31:26;9;8;
64627;PMS5003;59036;50.960;0.314;2022-07-12T08:33:53;7;6;
64627;PMS5003;59036;50.960;0.314;2022-07-12T08:36:20;7;7;
64627;PMS5003;59036;50.960;0.314;2022-07-12T08:38:47;8;8;
64627;PMS5003;59036;50.960;0.314;2022-07-12T08:41:14;9;9;
64627;PMS5003;59036;50.960;0.314;2022-07-12T08:43:41;8;7;
64627;PMS5003;59036;50.960;0.314;2022-07-12T08:46:09;7;7;
64627;PMS5003;59036;50.960;0.314;2022-07-12T08:48:39;7;7;
64627;PMS5003;59036;50.960;0.314;2022-07-12T08:51:07;8;8;
64627;PMS5003;59036;50.960;0.314;2022-07-12T08:53:36;7;7;
64627;PMS5003;59036;50.960;0.314;2022-07-12T08:56:05;8;8;
64627;PMS5003;59036;50.960;0.314;2022-07-12T08:58:33;7;7;
64627;PMS5003;59036;50.960;0.314;2022-07-12T09:01:00;8;8;
64627;PMS5003;59036;50.960;0.314;2022-07-12T09:03:27;8;7;
64627;PMS5003;59036;50.960;0.314;2022-07-12T09:05:54;9;9;
64627;PMS5003;59036;50.960;0.314;2022-07-12T09:08:24;8;8;
64627;PMS5003;59036;50.960;0.314;2022-07-12T09:10:54;10;10;
64627;PMS5003;59036;50.960;0.314;2022-07-12T09:13:58;9;8;
64627;PMS5003;59036;50.960;0.314;2022-07-12T09:16:26;6;6;
64627;PMS5003;59036;50.960;0.314;2022-07-12T09:19:11;9;9;
64627;PMS5003;59036;50.960;0.314;2022-07-12T09:21:46;7;7;
64627;PMS5003;59036;50.960;0.314;2022-07-12T09:24:14;8;8;
64627;PMS5003;59036;50.960;0.314;2022-07-12T09:26:41;10;9;
64627;PMS5003;59036;50.960;0.314;2022-07-12T09:29:08;9;8;
64627;PMS5003;59036;50.960;0.314;2022-07-12T09:31:38;9;9;
64627;PMS5003;59036;50.960;0.314;2022-07-12T09:34:06;9;9;
64627;PMS5003;59036;50.960;0.314;2022-07-12T09:36:33;10;10;
64627;PMS5003;59036;50.960;0.314;2022-07-12T09:39:00;9;9;
64627;PMS5003;59036;50.960;0.314;2022-07-12T09:41:27;8;8;
64627;PMS5003;59036;50.960;0.314;2022-07-12T09:43:54;12;11;
64627;PMS5003;59036;50.960;0.314;2022-07-12T09:46:23;10;10;
64627;PMS5003;59036;50.960;0.314;2022-07-12T09:48:50;9;9;
64627;PMS5003;59036;50.960;0.314;2022-07-12T09:51:17;9;9;
64627;PMS5003;59036;50.960;0.314;2022-07-12T09:53:45;9;9;
64627;PMS5003;59036;50.960;0.314;2022-07-12T09:56:15;10;10;
64627;PMS5003;59036;50.960;0.314;2022-07-12T09:58:47;11;11;
64627;PMS5003;59036;50.960;0.314;2022-07-12T10:01:18;11;11;
64627;PMS5003;59036;50.960;0.314;2022-07-12T10:03:46;11;11;
64627;PMS5003;59036;50.960;0.314;2022-07-12T10:06:16;10;10;
64627;PMS5003;59036;50.960;0.314;2022-07-12T10:08:50;10;10;
64627;PMS5003;59036;50.960;0.314;2022-07-12T10:11:17;8;8;
64627;PMS5003;59036;50.960;0.314;2022-07-12T10:13:45;10;10;
64627;PMS5003;59036;50.960;0.314;2022-07-12T10:16:14;9;8;
64627;PMS5003;59036;50.960;0.314;2022-07-12T10:18:44;11;11;
64627;PMS5003;59036;50.960;0.314;2022-07-12T10:21:17;10;9;
64627;PMS5003;59036;50.960;0.314;2022-07-12T10:23:45;9;9;
64627;PMS5003;59036;50.960;0.314;2022-07-12T10:26:44;9;9;
64627;PMS5003;59036;50.960;0.314;2022-07-12T10:29:11;7;7;
64627;PMS5003;59036;50.960;0.314;2022-07-12T10:31:46;9;8;
64627;PMS5003;59036;50.960;0.314;2022-07-12T10:34:14;10;10;
64627;PMS5003;59036;50.960;0.314;2022-07-12T10:37:19;10;9;
64627;PMS5003;59036;50.960;0.314;2022-07-12T10:40:20;9;9;
64627;PMS5003;59036;50.960;0.314;2022-07-12T10:43:12;7;7;
64627;PMS5003;59036;50.960;0.314;2022-07-12T10:45:42;8;8;
64627;PMS5003;59036;50.960;0.314;2022-07-12T10:48:19;10;10;
64627;PMS5003;59036;50.960;0.314;2022-07-12T10:50:52;9;9;
64627;PMS5003;59036;50.960;0.314;2022-07-12T10:53:21;6;6;
64627;PMS5003;59036;50.960;0.314;2022-07-12T10:56:22;9;9;
64627;PMS5003;59036;50.960;0.314;2022-07-12T10:58:50;9;9;
64627;PMS5003;59036;50.960;0.314;2022-07-12T11:01:19;8;8;
64627;PMS5003;59036;50.960;0.314;2022-07-12T11:03:48;8;8;
64627;PMS5003;59036;50.960;0.314;2022-07-12T11:06:17;11;11;
64627;PMS5003;59036;50.960;0.314;2022-07-12T11:08:47;9;9;
64627;PMS5003;59036;50.960;0.314;2022-07-12T11:11:16;9;9;
64627;PMS5003;59036;50.960;0.314;2022-07-12T11:13:42;10;10;
64627;PMS5003;59036;50.960;0.314;2022-07-12T11:16:10;10;9;
64627;PMS5003;59036;50.960;0.314;2022-07-12T11:18:38;9;9;
64627;PMS5003;59036;50.960;0.314;2022-07-12T11:21:05;8;8;
64627;PMS5003;59036;50.960;0.314;2022-07-12T11:23:33;10;10;
64627;PMS5003;59036;50.960;0.314;2022-07-12T11:26:02;9;8;
64627;PMS5003;59036;50.960;0.314;2022-07-12T11:28:30;10;10;
64627;PMS5003;59036;50.960;0.314;2022-07-12T11:31:03;9;9;
64627;PMS5003;59036;50.960;0.314;2022-07-12T11:33:32;8;8;
64627;PMS5003;59036;50.960;0.314;2022-07-12T11:36:02;7;7;
64627;PMS5003;59036;50.960;0.314;2022-07-12T11:38:31;9;9;
64627;PMS5003;59036;50.960;0.314;2022-07-12T11:40:59;11;10;
64627;PMS5003;59036;50.960;0.314;2022-07-12T11:43:27;11;10;
64627;PMS5003;59036;50.960;0.314;2022-07-12T11:45:55;8;8;
64627;PMS5003;59036;50.960;0.314;2022-07-12T11:48:23;8;8;
64627;PMS5003;59036;50.960;0.314;2022-07-12T11:50:50;9;9;
64627;PMS5003;59036;50.960;0.314;2022-07-12T11:53:19;11;9;
64627;PMS5003;59036;50.960;0.314;2022-07-12T11:55:49;8;8;
64627;PMS5003;59036;50.960;0.314;2022-07-12T11:58:19;9;9;
64627;PMS5003;59036;50.960;0.314;2022-07-12T12:00:46;10;9;
64627;PMS5003;59036;50.960;0.314;2022-07-12T12:03:15;8;8;
64627;PMS5003;59036;50.960;0.314;2022-07-12T12:05:45;9;9;
64627;PMS5003;59036;50.960;0.314;2022-07-12T12:08:14;9;9;
64627;PMS5003;59036;50.960;0.314;2022-07-12T12:10:43;10;10;
64627;PMS5003;59036;50.960;0.314;2022-07-12T12:13:19;9;9;
64627;PMS5003;59036;50.960;0.314;2022-07-12T12:15:48;12;11;
64627;PMS5003;59036;50.960;0.314;2022-07-12T12:18:26;11;11;
64627;PMS5003;59036;50.960;0.314;2022-07-12T12:20:56;9;9;
64627;PMS5003;59036;50.960;0.314;2022-07-12T12:23:24;10;10;
64627;PMS5003;59036;50.960;0.314;2022-07-12T12:25:51;11;10;
64627;PMS5003;59036;50.960;0.314;2022-07-12T12:28:18;11;11;
64627;PMS5003;59036;50.960;0.314;2022-07-12T12:30:49;11;11;
64627;PMS5003;59036;50.960;0.314;2022-07-12T12:33:34;11;11;
64627;PMS5003;59036;50.960;0.314;2022-07-12T12:36:10;9;9;
64627;PMS5003;59036;50.960;0.314;2022-07-12T12:38:39;9;9;
64627;PMS5003;59036;50.960;0.314;2022-07-12T12:41:06;9;9;
64627;PMS5003;59036;50.960;0.314;2022-07-12T12:43:32;10;10;
64627;PMS5003;59036;50.960;0.314;2022-07-12T12:46:00;9;9;
64627;PMS5003;59036;50.960;0.314;2022-07-12T12:48:29;9;9;
64627;PMS5003;59036;50.960;0.314;2022-07-12T12:51:02;8;8;
64627;PMS5003;59036;50.960;0.314;2022-07-12T12:53:31;10;10;
64627;PMS5003;59036;50.960;0.314;2022-07-12T12:55:59;6;6;
64627;PMS5003;59036;50.960;0.314;2022-07-12T12:58:26;9;7;
64627;PMS5003;59036;50.960;0.314;2022-07-12T13:00:54;6;6;
64627;PMS5003;59036;50.960;0.314;2022-07-12T13:03:22;7;7;
64627;PMS5003;59036;50.960;0.314;2022-07-12T13:05:50;9;9;
64627;PMS5003;59036;50.960;0.314;2022-07-12T13:08:16;8;8;
64627;PMS5003;59036;50.960;0.314;2022-07-12T13:10:44;9;9;
64627;PMS5003;59036;50.960;0.314;2022-07-12T13:13:12;6;6;
64627;PMS5003;59036;50.960;0.314;2022-07-12T13:15:40;5;5;
64627;PMS5003;59036;50.960;0.314;2022-07-12T13:18:07;7;7;
64627;PMS5003;59036;50.960;0.314;2022-07-12T13:20:34;8;8;
64627;PMS5003;59036;50.960;0.314;2022-07-12T13:23:01;8;7;
64627;PMS5003;59036;50.960;0.314;2022-07-12T13:25:28;6;6;
64627;PMS5003;59036;50.960;0.314;2022-07-12T13:27:55;9;8;
64627;PMS5003;59036;50.960;0.314;2022-07-12T13:30:21;7;7;
64627;PMS5003;59036;50.960;0.314;2022-07-12T13:32:48;7;7;
64627;PMS5003;59036;50.960;0.314;2022-07-12T13:35:15;8;8;
64627;PMS5003;59036;50.960;0.314;2022-07-12T13:37:42;8;8;
64627;PMS5003;59036;50.960;0.314;2022-07-12T13:40:10;11;10;
64627;PMS5003;59036;50.960;0.314;2022-07-12T13:42:37;8;8;
64627;PMS5003;59036;50.960;0.314;2022-07-12T13:45:06;10;10;
64627;PMS5003;59036;50.960;0.314;2022-07-12T13:47:34;9;9;
64627;PMS5003;59036;50.960;0.314;2022-07-12T13:50:01;10;10;
64627;PMS5003;59036;50.960;0.314;2022-07-12T13:52:29;9;8;
64627;PMS5003;59036;50.960;0.314;2022-07-12T13:54:56;9;9;
64627;PMS5003;59036;50.960;0.314;2022-07-12T13:57:24;9;9;
64627;PMS5003;59036;50.960;0.314;2022-07-12T13:59:51;10;9;
64627;PMS5003;59036;50.960;0.314;2022-07-12T14:02:18;10;10;
64627;PMS5003;59036;50.960;0.314;2022-07-12T14:04:46;10;10;
64627;PMS5003;59036;50.960;0.314;2022-07-12T14:07:14;8;8;
64627;PMS5003;59036;50.960;0.314;2022-07-12T14:09:41;9;9;
64627;PMS5003;59036;50.960;0.314;2022-07-12T14:12:08;8;8;
64627;PMS5003;59036;50.960;0.314;2022-07-12T14:14:35;10;10;
64627;PMS5003;59036;50.960;0.314;2022-07-12T14:17:03;10;10;
64627;PMS5003;59036;50.960;0.314;2022-07-12T14:19:29;11;10;
64627;PMS5003;59036;50.960;0.314;2022-07-12T14:21:56;9;9;
64627;PMS5003;59036;50.960;0.314;2022-07-12T14:24:23;10;10;
64627;PMS5003;59036;50.960;0.314;2022-07-12T14:26:51;9;9;
64627;PMS5003;59036;50.960;0.314;2022-07-12T14:29:18;9;9;
64627;PMS5003;59036;50.960;0.314;2022-07-12T14:31:45;11;11;
64627;PMS5003;59036;50.960;0.314;2022-07-12T14:34:12;10;10;
64627;PMS5003;59036;50.960;0.314;2022-07-12T14:36:39;9;9;
64627;PMS5003;59036;50.960;0.314;2022-07-12T14:39:06;8;8;
64627;PMS5003;59036;50.960;0.314;2022-07-12T14:41:33;8;8;
64627;PMS5003;59036;50.960;0.314;2022-07-12T14:44:00;9;9;
64627;PMS5003;59036;50.960;0.314;2022-07-12T14:46:27;7;7;
64627;PMS5003;59036;50.960;0.314;2022-07-12T14:48:54;9;9;
64627;PMS5003;59036;50.960;0.314;2022-07-12T14:51:21;9;9;
64627;PMS5003;59036;50.960;0.314;2022-07-12T14:53:48;9;9;
64627;PMS5003;59036;50.960;0.314;2022-07-12T14:56:14;9;9;
64627;PMS5003;59036;50.960;0.314;2022-07-12T14:58:41;8;8;
64627;PMS5003;59036;50.960;0.314;2022-07-12T15:01:08;8;8;
64627;PMS5003;59036;50.960;0.314;2022-07-12T15:03:35;9;9;
64627;PMS5003;59036;50.960;0.314;2022-07-12T15:06:02;9;9;
64627;PMS5003;59036;50.960;0.314;2022-07-12T15:08:30;7;7;
64627;PMS5003;59036;50.960;0.314;2022-07-12T15:10:57;9;9;
64627;PMS5003;59036;50.960;0.314;2022-07-12T15:13:24;7;7;
64627;PMS5003;59036;50.960;0.314;2022-07-12T15:15:51;10;9;
64627;PMS5003;59036;50.960;0.314;2022-07-12T15:18:18;9;9;
64627;PMS5003;59036;50.960;0.314;2022-07-12T15:20:45;10;10;
64627;PMS5003;59036;50.960;0.314;2022-07-12T15:23:12;9;8;
64627;PMS5003;59036;50.960;0.314;2022-07-12T15:25:39;10;10;
64627;PMS5003;59036;50.960;0.314;2022-07-12T15:28:06;10;10;
64627;PMS5003;59036;50.960;0.314;2022-07-12T15:30:33;9;9;
64627;PMS5003;59036;50.960;0.314;2022-07-12T15:33:00;6;6;
64627;PMS5003;59036;50.960;0.314;2022-07-12T15:35:27;9;9;
64627;PMS5003;59036;50.960;0.314;2022-07-12T15:37:54;7;7;
64627;PMS5003;59036;50.960;0.314;2022-07-12T15:40:21;7;7;
64627;PMS5003;59036;50.960;0.314;2022-07-12T15:42:48;6;6;
64627;PMS5003;59036;50.960;0.314;2022-07-12T15:45:15;7;7;
64627;PMS5003;59036;50.960;0.314;2022-07-12T15:47:42;6;6;
64627;PMS5003;59036;50.960;0.314;2022-07-12T15:50:08;5;5;
64627;PMS5003;59036;50.960;0.314;2022-07-12T15:52:36;6;6;
64627;PMS5003;59036;50.960;0.314;2022-07-12T15:55:03;7;7;
64627;PMS5003;59036;50.960;0.314;2022-07-12T15:57:31;7;6;
64627;PMS5003;59036;50.960;0.314;2022-07-12T15:59:57;8;7;
64627;PMS5003;59036;50.960;0.314;2022-07-12T16:02:24;7;7;
64627;PMS5003;59036;50.960;0.314;2022-07-12T16:04:51;8;7;
64627;PMS5003;59036;50.960;0.314;2022-07-12T16:07:19;8;8;
64627;PMS5003;59036;50.960;0.314;2022-07-12T16:09:46;6;6;
64627;PMS5003;59036;50.960;0.314;2022-07-12T16:12:13;8;7;
64627;PMS5003;59036;50.960;0.314;2022-07-12T16:14:41;6;6;
64627;PMS5003;59036;50.960;0.314;2022-07-12T16:17:07;6;5;
64627;PMS5003;59036;50.960;0.314;2022-07-12T16:19:35;8;8;
64627;PMS5003;59036;50.960;0.314;2022-07-12T16:22:02;7;7;
64627;PMS5003;59036;50.960;0.314;2022-07-12T16:24:30;7;7;
64627;PMS5003;59036;50.960;0.314;2022-07-12T16:26:56;7;7;
64627;PMS5003;59036;50.960;0.314;2022-07-12T16:29:23;8;8;
64627;PMS5003;59036;50.960;0.314;2022-07-12T16:31:50;7;7;
64627;PMS5003;59036;50.960;0.314;2022-07-12T16:34:18;7;7;
64627;PMS5003;59036;50.960;0.314;2022-07-12T16:36:45;6;6;
64627;PMS5003;59036;50.960;0.314;2022-07-12T16:39:12;9;9;
64627;PMS5003;59036;50.960;0.314;2022-07-12T16:41:39;8;8;